Time;durP1;ratioP1;P1;durP2;ratioP2;P2;SDS_P1;SDS_P2;PMS_P1;PMS_P2;Temp;Humidity;BMP_temperature;BMP_pressure;BME280_temperature;BME280_humidity;BME280_pressure;Samples;Min_cycle;Max_cycle;Signal;HPM_P1;HPM_P2
2022/06/11 00:00:03;;;;;;;;;;;19.30;90.80;;;;;;5035148;28;19921;-57
2022/06/11 00:02:29;;;;;;;;;;;19.30;91.20;;;;;;5052358;28;19944;-58
2022/06/11 00:04:54;;;;;;;;;;;19.30;90.70;;;;;;5052566;28;20291;-58
2022/06/11 00:07:21;;;;;;;;;;;19.20;91.20;;;;;;5053473;28;19921;-57
2022/06/11 00:09:47;;;;;;;;;;;19.30;91.20;;;;;;5053196;28;20395;-58
2022/06/11 00:12:13;;;;;;;;;;;19.20;91.20;;;;;;5052484;28;20360;-58
2022/06/11 00:14:42;;;;;;;;;;;19.20;90.60;;;;;;5052423;28;19968;-57
2022/06/11 00:17:09;;;;;;;;;;;19.20;91.00;;;;;;5052490;28;19935;-56
2022/06/11 00:19:35;;;;;;;;;;;19.20;91.10;;;;;;5049733;28;19956;-58
2022/06/11 00:22:01;;;;;;;;;;;19.20;91.70;;;;;;5052569;28;20495;-58
2022/06/11 00:24:27;;;;;;;;;;;19.10;91.80;;;;;;5053111;28;19912;-57
2022/06/11 00:26:54;;;;;;;;;;;19.10;91.30;;;;;;5052136;28;20337;-59
2022/06/11 00:29:21;;;;;;;;;;;19.00;91.70;;;;;;5052023;28;20020;-59
2022/06/11 00:31:46;;;;;;;;;;;19.00;91.60;;;;;;5052548;28;19912;-57
2022/06/11 00:34:12;;;;;;;;;;;19.00;91.50;;;;;;5052034;28;19959;-58
2022/06/11 00:36:38;;;;;;;;;;;19.00;91.70;;;;;;5053128;28;20326;-58
2022/06/11 00:39:04;;;;;;;;;;;19.00;91.50;;;;;;5051259;28;19916;-58
2022/06/11 00:41:30;;;;;;;;;;;19.00;91.90;;;;;;5034421;28;19920;-58
2022/06/11 00:43:55;;;;;;;;;;;19.00;92.00;;;;;;5052014;28;20275;-58
2022/06/11 00:46:44;;;;;;;;;;;18.90;92.10;;;;;;5051783;28;19924;-58
2022/06/11 00:49:28;;;;;;;;;;;18.90;92.20;;;;;;5051157;28;19909;-57
2022/06/11 00:52:16;;;;;;;;;;;18.80;92.30;;;;;;5052047;28;19912;-58
2022/06/11 00:54:43;;;;;;;;;;;18.80;92.90;;;;;;5052383;28;19923;-58
2022/06/11 00:57:10;;;;;;;;;;;18.80;92.70;;;;;;5051482;28;20015;-57
2022/06/11 00:59:47;;;;;;;;;;;18.80;92.20;;;;;;5051851;28;19929;-57
2022/06/11 01:02:13;;;;;;;;;;;18.70;92.70;;;;;;5051303;28;19928;-58
2022/06/11 01:04:44;;;;;;;;;;;18.70;92.90;;;;;;5051825;28;19917;-57
2022/06/11 01:07:18;;;;;;;;;;;18.70;92.70;;;;;;5051211;28;19909;-58
2022/06/11 01:10:07;;;;;;;;;;;18.60;92.90;;;;;;5052648;28;19964;-58
2022/06/11 01:12:33;;;;;;;;;;;18.60;92.70;;;;;;4969538;28;19922;-58
2022/06/11 01:15:05;;;;;;;;;;;18.60;93.10;;;;;;4970468;28;19914;-58
2022/06/11 01:17:40;;;;;;;;;;;18.60;92.80;;;;;;4970285;28;20496;-56
2022/06/11 01:20:15;;;;;;;;;;;18.60;93.00;;;;;;4970402;28;20460;-57
2022/06/11 01:22:58;;;;;;;;;;;18.60;93.20;;;;;;4969810;28;19915;-58
2022/06/11 01:25:27;;;;;;;;;;;18.50;92.70;;;;;;4970702;28;19925;-57
2022/06/11 01:28:08;;;;;;;;;;;18.50;92.60;;;;;;4970938;28;20399;-57
2022/06/11 01:30:42;;;;;;;;;;;18.50;92.90;;;;;;4971268;28;20367;-57
2022/06/11 01:33:09;;;;;;;;;;;18.50;93.20;;;;;;4970085;28;19921;-58
2022/06/11 01:35:38;;;;;;;;;;;18.50;92.90;;;;;;4969690;28;19914;-57
2022/06/11 01:38:27;;;;;;;;;;;18.50;92.90;;;;;;4969924;28;19918;-58
2022/06/11 01:41:11;;;;;;;;;;;18.50;93.10;;;;;;4969868;28;19922;-57
2022/06/11 01:43:39;;;;;;;;;;;18.50;93.30;;;;;;4970584;28;20016;-57
2022/06/11 01:46:07;;;;;;;;;;;18.50;93.40;;;;;;4970292;28;19910;-58
2022/06/11 01:48:32;;;;;;;;;;;18.50;93.10;;;;;;4975090;28;19918;-57
2022/06/11 01:51:03;;;;;;;;;;;18.50;93.40;;;;;;5050447;28;19912;-59
2022/06/11 01:54:01;;;;;;;;;;;18.40;93.20;;;;;;5050831;28;19913;-57
2022/06/11 01:56:30;;;;;;;;;;;18.40;93.20;;;;;;5006042;28;20005;-57
2022/06/11 01:59:06;;;;;;;;;;;18.40;93.90;;;;;;5007826;28;19918;-58
2022/06/11 02:01:50;;;;;;;;;;;18.40;93.70;;;;;;5008497;28;20060;-59
2022/06/11 02:04:22;;;;;;;;;;;18.40;93.70;;;;;;5008161;28;19914;-57
2022/06/11 02:06:47;;;;;;;;;;;18.40;94.10;;;;;;5005367;28;19909;-58
2022/06/11 02:09:15;;;;;;;;;;;18.40;94.10;;;;;;5008302;28;20470;-57
2022/06/11 02:11:44;;;;;;;;;;;18.30;94.40;;;;;;5009050;28;19949;-57
2022/06/11 02:14:18;;;;;;;;;;;18.30;94.40;;;;;;5008563;28;19923;-57
2022/06/11 02:16:43;;;;;;;;;;;18.30;94.30;;;;;;5008451;28;19914;-57
2022/06/11 02:19:12;;;;;;;;;;;18.30;94.80;;;;;;5007955;28;19924;-56
2022/06/11 02:21:40;;;;;;;;;;;18.20;95.00;;;;;;5009264;28;19913;-57
2022/06/11 02:24:10;;;;;;;;;;;18.20;95.10;;;;;;5008195;28;19917;-57
2022/06/11 02:26:40;;;;;;;;;;;18.20;94.40;;;;;;4991689;28;20008;-57
2022/06/11 02:29:07;;;;;;;;;;;18.20;94.30;;;;;;5007814;28;19920;-58
2022/06/11 02:31:35;;;;;;;;;;;18.10;94.10;;;;;;5014993;28;19956;-57
2022/06/11 02:34:02;;;;;;;;;;;18.20;94.50;;;;;;5028854;28;20342;-56
2022/06/11 02:36:29;;;;;;;;;;;18.20;94.90;;;;;;5031114;28;20415;-58
2022/06/11 02:38:57;;;;;;;;;;;18.10;94.50;;;;;;5029771;28;19964;-58
2022/06/11 02:41:28;;;;;;;;;;;18.10;94.60;;;;;;5029781;28;19913;-58
2022/06/11 02:43:54;;;;;;;;;;;18.10;94.70;;;;;;5029728;28;19913;-57
2022/06/11 02:49:04;;;;;;;;;;;18.10;95.00;;;;;;5029926;28;19916;-57
2022/06/11 02:51:30;;;;;;;;;;;18.10;95.30;;;;;;5031272;28;19909;-57
2022/06/11 02:53:55;;;;;;;;;;;18.10;95.30;;;;;;5029615;28;19936;-58
2022/06/11 02:56:21;;;;;;;;;;;18.10;95.20;;;;;;5028853;28;20387;-59
2022/06/11 02:58:47;;;;;;;;;;;18.00;95.20;;;;;;5029815;28;19913;-58
2022/06/11 03:01:13;;;;;;;;;;;18.00;95.40;;;;;;5040701;28;19921;-58
2022/06/11 03:03:38;;;;;;;;;;;18.00;95.50;;;;;;5050297;28;19912;-58
2022/06/11 03:06:04;;;;;;;;;;;18.00;95.90;;;;;;5049512;28;19913;-59
2022/06/11 03:08:31;;;;;;;;;;;18.00;95.70;;;;;;5049359;28;19919;-58
2022/06/11 03:10:56;;;;;;;;;;;17.90;95.60;;;;;;5051052;28;19913;-58
2022/06/11 03:13:25;;;;;;;;;;;17.90;95.70;;;;;;5053121;28;19921;-58
2022/06/11 03:15:51;;;;;;;;;;;17.90;95.80;;;;;;5054085;28;20004;-58
2022/06/11 03:18:17;;;;;;;;;;;17.90;95.80;;;;;;5053528;28;20098;-58
2022/06/11 03:20:43;;;;;;;;;;;17.90;96.00;;;;;;5052861;28;19921;-57
2022/06/11 03:23:09;;;;;;;;;;;17.90;96.50;;;;;;5052781;28;19913;-58
2022/06/11 03:25:35;;;;;;;;;;;17.80;96.70;;;;;;5053152;28;19913;-58
2022/06/11 03:28:08;;;;;;;;;;;17.80;96.30;;;;;;5053580;28;19936;-58
2022/06/11 03:30:34;;;;;;;;;;;17.80;96.50;;;;;;5054177;28;19909;-58
2022/06/11 03:33:00;;;;;;;;;;;17.80;96.30;;;;;;5052341;28;20256;-58
2022/06/11 03:35:25;;;;;;;;;;;17.80;95.90;;;;;;5051843;28;19924;-57
2022/06/11 03:37:51;;;;;;;;;;;17.80;96.30;;;;;;5052762;28;19923;-59
2022/06/11 03:40:17;;;;;;;;;;;17.70;96.40;;;;;;5052671;28;20334;-59
2022/06/11 03:42:42;;;;;;;;;;;17.70;96.30;;;;;;5035637;28;19949;-59
2022/06/11 03:45:08;;;;;;;;;;;17.70;96.70;;;;;;5051544;28;19994;-58
2022/06/11 03:47:36;;;;;;;;;;;17.70;96.50;;;;;;5052248;28;19960;-58
2022/06/11 03:50:03;;;;;;;;;;;17.60;97.00;;;;;;5053157;28;19913;-58
2022/06/11 03:52:30;;;;;;;;;;;17.60;97.00;;;;;;5052579;28;19947;-58
2022/06/11 03:54:56;;;;;;;;;;;17.60;96.70;;;;;;5052886;28;20283;-59
2022/06/11 03:57:22;;;;;;;;;;;17.60;96.70;;;;;;5052866;28;19917;-59
2022/06/11 03:59:48;;;;;;;;;;;17.60;96.60;;;;;;5052424;28;20361;-59
2022/06/11 04:02:14;;;;;;;;;;;17.60;96.70;;;;;;5052059;28;19928;-59
2022/06/11 04:04:39;;;;;;;;;;;17.60;96.70;;;;;;5052364;28;20771;-57
2022/06/11 04:07:05;;;;;;;;;;;17.60;96.70;;;;;;5052260;28;19987;-58
2022/06/11 04:09:35;;;;;;;;;;;17.60;96.90;;;;;;5051667;28;19908;-58
2022/06/11 04:12:01;;;;;;;;;;;17.60;97.00;;;;;;5051929;28;19917;-58
2022/06/11 04:14:27;;;;;;;;;;;17.60;97.00;;;;;;5052135;28;19913;-58
2022/06/11 04:16:55;;;;;;;;;;;17.60;97.20;;;;;;5052137;28;20337;-57
2022/06/11 04:19:25;;;;;;;;;;;17.70;97.30;;;;;;5052067;28;19924;-58
2022/06/11 04:21:51;;;;;;;;;;;17.70;97.40;;;;;;5052746;28;19916;-58
2022/06/11 04:24:17;;;;;;;;;;;17.70;98.00;;;;;;5051982;28;19920;-58
2022/06/11 04:26:44;;;;;;;;;;;17.70;98.30;;;;;;5051901;28;19921;-57
2022/06/11 04:29:11;;;;;;;;;;;17.80;98.80;;;;;;5050925;28;19913;-57
2022/06/11 04:31:37;;;;;;;;;;;17.80;99.30;;;;;;5052361;28;19916;-58
2022/06/11 04:34:03;;;;;;;;;;;17.80;99.50;;;;;;5052057;28;19909;-58
2022/06/11 04:36:30;;;;;;;;;;;17.80;99.90;;;;;;5052530;28;19987;-57
2022/06/11 04:38:55;;;;;;;;;;;17.80;99.90;;;;;;5051753;28;19959;-57
2022/06/11 04:41:21;;;;;;;;;;;17.80;99.80;;;;;;5052177;28;19951;-58
2022/06/11 04:43:47;;;;;;;;;;;17.80;99.90;;;;;;5051882;28;19913;-57
2022/06/11 04:46:13;;;;;;;;;;;17.90;99.80;;;;;;5052042;28;19916;-58
2022/06/11 04:48:39;;;;;;;;;;;18.00;99.90;;;;;;5052882;28;19909;-57
2022/06/11 04:51:04;;;;;;;;;;;18.00;99.90;;;;;;5051516;28;20306;-58
2022/06/11 04:53:30;;;;;;;;;;;18.00;99.90;;;;;;5052015;28;19913;-58
2022/06/11 04:55:56;;;;;;;;;;;18.00;99.90;;;;;;5051579;28;20432;-58
2022/06/11 04:58:21;;;;;;;;;;;18.00;99.90;;;;;;5051574;28;19927;-58
2022/06/11 05:00:47;;;;;;;;;;;18.00;99.90;;;;;;5052512;28;19927;-57
2022/06/11 05:03:13;;;;;;;;;;;18.00;99.90;;;;;;5051829;28;19951;-58
2022/06/11 05:05:38;;;;;;;;;;;18.00;99.90;;;;;;5051966;28;20318;-58
2022/06/11 05:08:04;;;;;;;;;;;18.00;99.90;;;;;;5051456;28;20007;-58
2022/06/11 05:10:31;;;;;;;;;;;18.00;99.90;;;;;;5051647;28;20387;-58
2022/06/11 05:12:56;;;;;;;;;;;18.10;99.90;;;;;;5051843;28;19912;-57
2022/06/11 05:15:22;;;;;;;;;;;18.10;99.90;;;;;;5051829;28;19913;-59
2022/06/11 05:17:48;;;;;;;;;;;18.10;99.90;;;;;;5051223;28;19916;-58
2022/06/11 05:20:15;;;;;;;;;;;18.10;99.90;;;;;;5051094;28;20004;-58
2022/06/11 05:22:40;;;;;;;;;;;18.10;99.90;;;;;;5051435;28;19917;-58
2022/06/11 05:25:06;;;;;;;;;;;18.10;99.90;;;;;;5051582;28;19908;-58
2022/06/11 05:27:32;;;;;;;;;;;18.10;99.90;;;;;;5049915;28;20414;-58
2022/06/11 05:29:59;;;;;;;;;;;18.10;99.90;;;;;;5050900;28;19959;-58
2022/06/11 05:32:27;;;;;;;;;;;18.00;99.90;;;;;;5051132;28;19935;-59
2022/06/11 05:34:53;;;;;;;;;;;18.00;99.90;;;;;;5050492;28;20021;-59
2022/06/11 05:37:19;;;;;;;;;;;18.10;99.90;;;;;;5051315;28;19921;-59
2022/06/11 05:39:46;;;;;;;;;;;18.10;99.90;;;;;;5051992;28;20353;-57
2022/06/11 05:42:12;;;;;;;;;;;18.10;99.90;;;;;;5050551;28;20015;-59
2022/06/11 05:44:37;;;;;;;;;;;18.10;99.90;;;;;;5050649;28;19913;-59
2022/06/11 05:47:04;;;;;;;;;;;18.20;99.90;;;;;;5050728;28;20283;-59
2022/06/11 05:49:33;;;;;;;;;;;18.20;99.90;;;;;;5051188;28;19924;-58
2022/06/11 05:52:01;;;;;;;;;;;18.30;99.90;;;;;;5050958;28;19913;-59
2022/06/11 05:54:28;;;;;;;;;;;18.40;99.90;;;;;;5050871;28;19969;-58
2022/06/11 05:56:54;;;;;;;;;;;18.40;99.90;;;;;;5050254;28;19912;-58
2022/06/11 05:59:23;;;;;;;;;;;18.40;99.90;;;;;;5050604;28;19928;-57
2022/06/11 06:01:49;;;;;;;;;;;18.40;99.90;;;;;;5050369;28;20283;-57
2022/06/11 06:04:15;;;;;;;;;;;18.50;99.90;;;;;;5050922;28;19917;-58
2022/06/11 06:06:41;;;;;;;;;;;18.50;99.90;;;;;;5051373;28;20011;-57
2022/06/11 06:09:07;;;;;;;;;;;18.50;99.90;;;;;;5050209;28;20047;-59
2022/06/11 06:11:33;;;;;;;;;;;18.60;99.90;;;;;;5047622;28;19920;-58
2022/06/11 06:13:58;;;;;;;;;;;18.60;99.90;;;;;;5049993;28;19913;-58
2022/06/11 06:16:25;;;;;;;;;;;18.60;99.90;;;;;;5029986;28;19913;-56
2022/06/11 06:18:51;;;;;;;;;;;18.70;99.90;;;;;;5051114;28;19915;-55
2022/06/11 06:21:18;;;;;;;;;;;18.70;99.90;;;;;;5044296;28;20007;-57
2022/06/11 06:23:43;;;;;;;;;;;18.80;99.90;;;;;;5049588;28;20335;-56
2022/06/11 06:26:09;;;;;;;;;;;18.80;99.90;;;;;;5049886;28;20004;-57
2022/06/11 06:28:35;;;;;;;;;;;18.80;99.90;;;;;;5050035;28;19913;-57
2022/06/11 06:31:01;;;;;;;;;;;18.90;99.90;;;;;;5048976;28;19913;-53
2022/06/11 06:33:27;;;;;;;;;;;18.90;99.90;;;;;;5050120;28;19920;-56
2022/06/11 06:35:52;;;;;;;;;;;19.00;99.90;;;;;;5048765;28;19960;-56
2022/06/11 06:38:18;;;;;;;;;;;19.00;99.90;;;;;;5048716;28;19975;-57
2022/06/11 06:40:43;;;;;;;;;;;19.00;99.90;;;;;;5050132;28;19924;-57
2022/06/11 06:43:09;;;;;;;;;;;19.00;99.90;;;;;;5052866;28;20306;-55
2022/06/11 06:45:34;;;;;;;;;;;19.10;99.90;;;;;;5035361;28;19956;-57
2022/06/11 06:48:02;;;;;;;;;;;19.00;99.90;;;;;;5033804;28;19963;-57
2022/06/11 06:50:28;;;;;;;;;;;19.10;99.90;;;;;;5043186;28;20375;-58
2022/06/11 06:52:53;;;;;;;;;;;19.10;99.90;;;;;;5046099;28;19924;-55
2022/06/11 06:55:19;;;;;;;;;;;19.20;99.90;;;;;;5046954;28;19920;-57
2022/06/11 06:57:44;;;;;;;;;;;19.20;99.90;;;;;;5048236;28;19913;-57
2022/06/11 07:00:11;;;;;;;;;;;19.30;99.90;;;;;;5047271;28;19925;-58
2022/06/11 07:02:36;;;;;;;;;;;19.30;99.90;;;;;;5046497;28;20429;-57
2022/06/11 07:05:02;;;;;;;;;;;19.40;99.90;;;;;;5047384;28;20528;-58
2022/06/11 07:07:27;;;;;;;;;;;19.50;99.90;;;;;;5047440;28;19927;-58
2022/06/11 07:09:53;;;;;;;;;;;19.50;99.90;;;;;;5047784;28;19923;-59
2022/06/11 07:12:19;;;;;;;;;;;19.60;99.90;;;;;;5047568;28;20691;-52
2022/06/11 07:14:45;;;;;;;;;;;19.70;99.90;;;;;;5047295;28;19919;-57
2022/06/11 07:17:10;;;;;;;;;;;19.80;99.90;;;;;;5046959;28;20004;-57
2022/06/11 07:19:39;;;;;;;;;;;19.90;99.90;;;;;;5046650;28;19948;-57
2022/06/11 07:22:13;;;;;;;;;;;19.90;99.90;;;;;;5046569;28;19916;-58
2022/06/11 07:24:40;;;;;;;;;;;19.90;99.90;;;;;;5046607;28;19939;-57
2022/06/11 07:27:08;;;;;;;;;;;19.90;99.90;;;;;;5046640;28;19923;-58
2022/06/11 07:29:40;;;;;;;;;;;20.00;99.90;;;;;;5046816;28;19912;-58
2022/06/11 07:32:08;;;;;;;;;;;20.00;99.90;;;;;;5046521;28;19917;-58
2022/06/11 07:34:35;;;;;;;;;;;20.00;99.90;;;;;;5046665;28;20054;-57
2022/06/11 07:37:01;;;;;;;;;;;20.00;99.90;;;;;;5046934;28;19917;-53
2022/06/11 07:39:26;;;;;;;;;;;20.10;99.90;;;;;;5047395;28;20405;-55
2022/06/11 07:41:52;;;;;;;;;;;20.10;99.90;;;;;;5011855;28;20542;-59
2022/06/11 07:44:17;;;;;;;;;;;20.10;99.90;;;;;;5046629;28;19912;-56
2022/06/11 07:46:43;;;;;;;;;;;20.20;99.90;;;;;;5045069;28;20007;-57
2022/06/11 07:49:08;;;;;;;;;;;20.20;99.90;;;;;;5047008;28;19951;-56
2022/06/11 07:51:34;;;;;;;;;;;20.30;99.90;;;;;;5047791;28;19916;-56
2022/06/11 07:53:59;;;;;;;;;;;20.30;99.90;;;;;;5046606;28;19936;-57
2022/06/11 07:56:25;;;;;;;;;;;20.40;99.90;;;;;;5047356;28;19913;-56
2022/06/11 07:58:52;;;;;;;;;;;20.40;99.90;;;;;;5050071;28;19970;-58
2022/06/11 08:01:18;;;;;;;;;;;20.40;99.90;;;;;;5050305;28;19921;-57
2022/06/11 08:03:44;;;;;;;;;;;20.40;99.90;;;;;;5051629;28;19917;-57
2022/06/11 08:06:10;;;;;;;;;;;20.40;99.90;;;;;;5050247;28;20668;-55
2022/06/11 08:08:36;;;;;;;;;;;20.40;99.90;;;;;;5049346;28;19913;-57
2022/06/11 08:11:01;;;;;;;;;;;20.50;99.90;;;;;;5049830;28;19951;-56
2022/06/11 08:13:27;;;;;;;;;;;20.50;99.90;;;;;;5031196;28;19920;-56
2022/06/11 08:15:53;;;;;;;;;;;20.60;99.90;;;;;;5050219;28;20366;-59
2022/06/11 08:18:19;;;;;;;;;;;20.60;99.90;;;;;;5050625;28;19956;-59
2022/06/11 08:20:46;;;;;;;;;;;20.70;99.90;;;;;;5049590;28;20374;-59
2022/06/11 08:23:12;;;;;;;;;;;20.80;99.90;;;;;;5045459;28;19924;-58
2022/06/11 08:25:38;;;;;;;;;;;20.80;99.90;;;;;;5031374;28;19945;-58
2022/06/11 08:28:05;;;;;;;;;;;20.70;99.90;;;;;;5049057;28;19916;-58
2022/06/11 08:30:31;;;;;;;;;;;20.80;99.90;;;;;;5049606;28;19916;-59
2022/06/11 08:32:57;;;;;;;;;;;20.80;99.90;;;;;;5049088;28;19963;-58
2022/06/11 08:35:24;;;;;;;;;;;20.70;99.90;;;;;;5049648;28;19916;-58
2022/06/11 08:37:51;;;;;;;;;;;20.80;99.90;;;;;;5049184;28;19917;-58
2022/06/11 08:40:27;;;;;;;;;;;20.90;99.90;;;;;;5050056;28;19982;-57
2022/06/11 08:42:57;;;;;;;;;;;20.80;99.90;;;;;;5032617;28;19921;-58
2022/06/11 08:45:41;;;;;;;;;;;20.90;99.90;;;;;;5050179;28;19956;-59
2022/06/11 08:48:12;;;;;;;;;;;20.90;99.90;;;;;;5049488;28;19917;-58
2022/06/11 08:50:42;;;;;;;;;;;20.90;99.90;;;;;;5049398;28;19919;-59
2022/06/11 08:53:07;;;;;;;;;;;21.00;99.90;;;;;;5049253;28;20474;-58
2022/06/11 08:55:35;;;;;;;;;;;21.10;99.90;;;;;;5049499;28;19996;-64
2022/06/11 08:58:06;;;;;;;;;;;21.10;99.90;;;;;;5050095;28;19966;-68
2022/06/11 09:00:38;;;;;;;;;;;21.10;99.90;;;;;;5050292;28;20379;-69
2022/06/11 09:03:30;;;;;;;;;;;21.20;99.80;;;;;;5048230;28;19944;-68
2022/06/11 09:06:14;;;;;;;;;;;21.20;99.40;;;;;;5044193;28;19956;-68
2022/06/11 09:08:51;;;;;;;;;;;21.20;99.60;;;;;;5047124;28;19916;-67
2022/06/11 09:11:22;;;;;;;;;;;21.20;99.40;;;;;;5047652;28;19920;-68
2022/06/11 09:13:51;;;;;;;;;;;21.10;99.20;;;;;;5049497;28;19960;-64
2022/06/11 09:16:26;;;;;;;;;;;21.20;99.20;;;;;;5047705;28;20297;-65
2022/06/11 09:19:12;;;;;;;;;;;21.20;99.40;;;;;;5049761;28;19923;-65
2022/06/11 09:21:43;;;;;;;;;;;21.30;99.40;;;;;;5048719;28;19927;-67
2022/06/11 09:24:09;;;;;;;;;;;21.30;98.90;;;;;;5048995;28;19916;-65
2022/06/11 09:26:53;;;;;;;;;;;21.30;99.00;;;;;;5048385;28;20406;-67
2022/06/11 09:29:19;;;;;;;;;;;21.30;99.00;;;;;;5047161;28;19917;-67
2022/06/11 09:31:54;;;;;;;;;;;21.40;99.20;;;;;;5048931;28;20035;-67
2022/06/11 09:34:28;;;;;;;;;;;21.50;99.00;;;;;;5048239;28;19920;-67
2022/06/11 09:36:59;;;;;;;;;;;21.50;98.60;;;;;;5049170;28;19912;-68
2022/06/11 09:39:36;;;;;;;;;;;21.50;98.50;;;;;;5049363;28;20314;-68
2022/06/11 09:42:27;;;;;;;;;;;21.40;98.50;;;;;;5048223;28;19958;-67
2022/06/11 09:45:08;;;;;;;;;;;21.50;98.50;;;;;;5045194;28;19921;-67
2022/06/11 09:47:48;;;;;;;;;;;21.50;98.60;;;;;;5044769;28;21412;-67
2022/06/11 09:50:16;;;;;;;;;;;21.50;98.70;;;;;;5048087;28;19919;-67
2022/06/11 09:52:42;;;;;;;;;;;21.60;98.70;;;;;;5048118;28;19939;-66
2022/06/11 09:55:23;;;;;;;;;;;21.60;98.10;;;;;;5048835;28;20359;-67
2022/06/11 09:58:01;;;;;;;;;;;21.50;98.20;;;;;;5049236;28;20291;-66
2022/06/11 10:00:29;;;;;;;;;;;21.60;98.00;;;;;;5050551;28;19924;-68
2022/06/11 10:03:21;;;;;;;;;;;21.60;97.80;;;;;;5048257;28;19919;-68
2022/06/11 10:05:51;;;;;;;;;;;21.60;98.00;;;;;;5046850;28;19952;-67
2022/06/11 10:08:26;;;;;;;;;;;21.70;98.10;;;;;;5047737;28;19921;-68
2022/06/11 10:10:52;;;;;;;;;;;21.80;98.30;;;;;;5047569;28;19964;-68
2022/06/11 10:13:28;;;;;;;;;;;21.80;98.40;;;;;;5048343;28;19928;-69
2022/06/11 10:15:54;;;;;;;;;;;21.90;98.20;;;;;;5049264;28;19916;-68
2022/06/11 10:18:23;;;;;;;;;;;22.00;98.10;;;;;;5047260;28;19913;-68
2022/06/11 10:20:50;;;;;;;;;;;22.00;97.60;;;;;;5047338;28;19921;-66
2022/06/11 10:23:34;;;;;;;;;;;22.00;97.20;;;;;;5047864;28;19963;-68
2022/06/11 10:26:10;;;;;;;;;;;22.00;97.50;;;;;;5047517;28;19916;-68
2022/06/11 10:28:38;;;;;;;;;;;22.00;97.50;;;;;;5044968;28;19919;-68
2022/06/11 10:31:09;;;;;;;;;;;22.00;97.10;;;;;;5047656;28;19916;-68
2022/06/11 10:33:39;;;;;;;;;;;22.00;97.10;;;;;;5046230;28;19920;-67
2022/06/11 10:36:10;;;;;;;;;;;22.00;97.40;;;;;;5047532;28;19996;-68
2022/06/11 10:38:57;;;;;;;;;;;22.20;97.70;;;;;;5047675;28;19912;-68
2022/06/11 10:41:27;;;;;;;;;;;22.20;97.30;;;;;;5047658;28;20409;-64
2022/06/11 10:44:00;;;;;;;;;;;22.30;97.10;;;;;;5047092;28;19921;-68
2022/06/11 10:46:25;;;;;;;;;;;22.30;96.30;;;;;;5047540;28;19912;-68
2022/06/11 10:48:51;;;;;;;;;;;22.40;96.50;;;;;;5048536;28;19921;-67
2022/06/11 10:51:25;;;;;;;;;;;22.50;96.80;;;;;;5047259;28;19965;-68
2022/06/11 10:53:58;;;;;;;;;;;22.60;96.90;;;;;;5046221;28;19920;-68
2022/06/11 10:56:39;;;;;;;;;;;22.80;97.20;;;;;;5046598;28;19999;-70
2022/06/11 10:59:06;;;;;;;;;;;22.90;96.00;;;;;;5045923;28;19921;-70
2022/06/11 11:01:33;;;;;;;;;;;23.00;96.60;;;;;;5047168;28;19921;-70
2022/06/11 11:04:07;;;;;;;;;;;23.00;96.10;;;;;;5047753;28;20026;-69
2022/06/11 11:06:34;;;;;;;;;;;23.00;95.30;;;;;;5047689;28;20390;-70
2022/06/11 11:09:04;;;;;;;;;;;23.00;95.10;;;;;;5046836;28;19924;-67
2022/06/11 11:11:32;;;;;;;;;;;22.90;95.00;;;;;;5044393;28;19955;-70
2022/06/11 11:14:16;;;;;;;;;;;22.90;95.10;;;;;;5046675;28;19913;-69
2022/06/11 11:16:47;;;;;;;;;;;22.90;94.90;;;;;;5045785;28;19912;-69
2022/06/11 11:19:12;;;;;;;;;;;22.90;94.50;;;;;;5047428;28;19959;-69
2022/06/11 11:21:40;;;;;;;;;;;22.90;94.40;;;;;;5030375;28;19948;-67
2022/06/11 11:24:10;;;;;;;;;;;23.00;93.80;;;;;;5046568;28;19917;-68
2022/06/11 11:26:56;;;;;;;;;;;23.00;93.70;;;;;;5047027;28;19913;-69
2022/06/11 11:29:24;;;;;;;;;;;23.00;93.70;;;;;;5046248;28;20290;-68
2022/06/11 11:31:57;;;;;;;;;;;23.00;93.50;;;;;;5047381;28;19912;-68
2022/06/11 11:34:27;;;;;;;;;;;23.00;93.90;;;;;;5050752;28;19927;-69
2022/06/11 11:36:57;;;;;;;;;;;23.00;94.20;;;;;;5051748;28;19940;-69
2022/06/11 11:39:27;;;;;;;;;;;23.10;94.10;;;;;;5032972;28;19925;-68
2022/06/11 11:42:08;;;;;;;;;;;23.20;94.00;;;;;;5050215;28;20360;-68
2022/06/11 11:44:35;;;;;;;;;;;23.30;93.10;;;;;;5047760;28;19978;-68
2022/06/11 11:47:01;;;;;;;;;;;23.30;93.20;;;;;;5050760;28;19990;-69
2022/06/11 11:49:29;;;;;;;;;;;23.30;92.60;;;;;;5050113;28;20305;-69
2022/06/11 11:52:06;;;;;;;;;;;23.30;93.10;;;;;;5051461;28;19923;-68
2022/06/11 11:54:31;;;;;;;;;;;23.40;93.40;;;;;;5051511;28;19924;-69
2022/06/11 11:56:59;;;;;;;;;;;23.60;93.00;;;;;;5050804;28;19913;-69
2022/06/11 11:59:35;;;;;;;;;;;23.60;92.10;;;;;;5051993;28;19925;-69
2022/06/11 12:02:10;;;;;;;;;;;23.60;92.30;;;;;;5051835;28;20248;-68
2022/06/11 12:04:41;;;;;;;;;;;23.60;92.70;;;;;;5048738;28;20387;-68
2022/06/11 12:07:12;;;;;;;;;;;23.60;92.10;;;;;;5049410;28;19956;-69
2022/06/11 12:09:39;;;;;;;;;;;23.50;92.10;;;;;;5048717;28;19986;-69
2022/06/11 12:12:18;;;;;;;;;;;23.50;91.10;;;;;;5049795;28;19913;-68
2022/06/11 12:14:46;;;;;;;;;;;23.40;91.90;;;;;;5049291;28;20010;-67
2022/06/11 12:17:17;;;;;;;;;;;23.40;91.90;;;;;;5050774;28;19913;-68
2022/06/11 12:19:44;;;;;;;;;;;23.40;91.50;;;;;;5049613;28;19960;-67
2022/06/11 12:22:15;;;;;;;;;;;23.40;92.00;;;;;;5050161;28;19916;-68
2022/06/11 12:24:43;;;;;;;;;;;23.40;91.90;;;;;;5048995;28;19995;-67
2022/06/11 12:27:15;;;;;;;;;;;23.40;91.60;;;;;;5049823;28;19917;-68
2022/06/11 12:29:44;;;;;;;;;;;23.40;91.70;;;;;;5049366;28;20007;-66
2022/06/11 12:32:15;;;;;;;;;;;23.50;91.70;;;;;;5049684;28;19912;-69
2022/06/11 12:34:41;;;;;;;;;;;23.60;91.40;;;;;;5049239;28;19927;-69
2022/06/11 12:37:06;;;;;;;;;;;23.60;91.10;;;;;;5049349;28;19912;-67
2022/06/11 12:39:43;;;;;;;;;;;23.70;90.90;;;;;;5050777;28;19925;-66
2022/06/11 12:42:12;;;;;;;;;;;23.70;91.10;;;;;;5048737;28;19924;-68
2022/06/11 12:44:56;;;;;;;;;;;23.80;90.70;;;;;;5049311;28;19912;-68
2022/06/11 12:47:51;;;;;;;;;;;23.90;91.30;;;;;;5048179;28;20376;-68
2022/06/11 12:50:21;;;;;;;;;;;24.00;91.50;;;;;;4964632;28;20554;-65
2022/06/11 12:52:58;;;;;;;;;;;24.10;91.20;;;;;;4967877;28;20978;-68
2022/06/11 12:55:42;;;;;;;;;;;24.10;90.90;;;;;;4969330;28;19922;-68
2022/06/11 12:58:13;;;;;;;;;;;24.10;90.30;;;;;;4967025;28;19969;-67
2022/06/11 13:00:54;;;;;;;;;;;24.10;90.20;;;;;;4968825;28;19933;-68
2022/06/11 13:03:38;;;;;;;;;;;24.10;89.40;;;;;;4951707;28;19917;-68
2022/06/11 13:06:22;;;;;;;;;;;24.10;88.90;;;;;;4967569;28;19969;-68
2022/06/11 13:09:05;;;;;;;;;;;24.00;88.20;;;;;;4966484;28;19941;-67
2022/06/11 13:11:45;;;;;;;;;;;24.00;88.10;;;;;;4968045;28;19914;-68
2022/06/11 13:14:22;;;;;;;;;;;24.00;87.70;;;;;;4968298;28;19937;-67
2022/06/11 13:16:58;;;;;;;;;;;24.00;87.10;;;;;;4966847;28;19980;-67
2022/06/11 13:19:44;;;;;;;;;;;24.00;87.40;;;;;;4968261;28;19930;-66
2022/06/11 13:22:25;;;;;;;;;;;24.00;87.40;;;;;;4967140;28;19921;-66
2022/06/11 13:24:56;;;;;;;;;;;24.00;87.50;;;;;;4968611;28;19918;-67
2022/06/11 13:27:37;;;;;;;;;;;24.00;87.50;;;;;;5030230;28;19916;-67
2022/06/11 13:30:03;;;;;;;;;;;24.00;86.40;;;;;;5048579;28;19995;-69
2022/06/11 13:32:37;;;;;;;;;;;24.10;86.90;;;;;;5049122;28;19924;-69
2022/06/11 13:35:16;;;;;;;;;;;24.10;87.00;;;;;;5048836;28;19924;-68
2022/06/11 13:37:42;;;;;;;;;;;24.10;87.50;;;;;;5046043;28;20390;-68
2022/06/11 13:40:20;;;;;;;;;;;24.20;87.70;;;;;;5048456;28;19920;-67
2022/06/11 13:42:58;;;;;;;;;;;24.20;88.00;;;;;;5048641;28;20011;-68
2022/06/11 13:45:36;;;;;;;;;;;24.30;88.00;;;;;;5048852;28;20729;-67
2022/06/11 13:48:14;;;;;;;;;;;24.20;87.60;;;;;;5048259;28;19917;-68
2022/06/11 13:50:48;;;;;;;;;;;24.30;87.80;;;;;;5045803;28;19913;-65
2022/06/11 13:56:27;;;;;;;;;;;24.30;87.10;;;;;;5043985;28;19959;-68
2022/06/11 13:58:52;;;;;;;;;;;24.40;87.40;;;;;;5048044;28;19917;-69
2022/06/11 14:01:37;;;;;;;;;;;24.50;87.80;;;;;;5048429;28;19936;-69
2022/06/11 14:04:15;;;;;;;;;;;24.60;87.10;;;;;;5021078;28;19917;-68
2022/06/11 14:06:42;;;;;;;;;;;24.70;86.30;;;;;;5048874;28;19947;-66
2022/06/11 14:12:01;;;;;;;;;;;24.70;86.20;;;;;;5048233;28;19924;-70
2022/06/11 14:14:30;;;;;;;;;;;24.70;86.80;;;;;;5047894;28;20299;-69
2022/06/11 14:16:55;;;;;;;;;;;24.80;86.90;;;;;;5047026;28;19925;-69
2022/06/11 14:19:20;;;;;;;;;;;24.90;87.30;;;;;;5047388;28;19937;-69
2022/06/11 14:21:48;;;;;;;;;;;24.90;85.60;;;;;;5048532;28;20371;-68
2022/06/11 14:24:32;;;;;;;;;;;24.90;84.90;;;;;;5047154;28;19917;-69
2022/06/11 14:26:58;;;;;;;;;;;24.80;83.50;;;;;;5047692;28;19916;-66
2022/06/11 14:29:25;;;;;;;;;;;24.80;83.40;;;;;;5047840;28;19970;-67
2022/06/11 14:31:52;;;;;;;;;;;24.90;83.90;;;;;;5047672;28;19916;-66
2022/06/11 14:34:24;;;;;;;;;;;25.00;82.50;;;;;;5047236;28;19921;-66
2022/06/11 14:37:22;;;;;;;;;;;25.10;84.20;;;;;;5048170;28;19917;-65
2022/06/11 14:39:48;;;;;;;;;;;25.20;83.10;;;;;;4966397;28;19918;-65